sensor_id;sensor_type;location;lat;lon;timestamp;pressure;altitude;pressure_sealevel;temperature;humidity
36260;BME280;22296;50.824;5.644;2023-07-29T00:01:57;99887.22;;;22.60;61.24
36260;BME280;22296;50.824;5.644;2023-07-29T00:04:24;99882.41;;;22.60;60.90
36260;BME280;22296;50.824;5.644;2023-07-29T00:06:51;99876.78;;;22.60;60.90
36260;BME280;22296;50.824;5.644;2023-07-29T00:09:18;99884.81;;;22.62;61.37
36260;BME280;22296;50.824;5.644;2023-07-29T00:11:45;99883.22;;;22.61;60.85
36260;BME280;22296;50.824;5.644;2023-07-29T00:14:12;99880.00;;;22.59;60.95
36260;BME280;22296;50.824;5.644;2023-07-29T00:16:39;99870.38;;;22.60;61.03
36260;BME280;22296;50.824;5.644;2023-07-29T00:19:06;99865.56;;;22.60;61.05
36260;BME280;22296;50.824;5.644;2023-07-29T00:21:36;99855.09;;;22.57;61.21
36260;BME280;22296;50.824;5.644;2023-07-29T00:24:03;99857.50;;;22.59;61.26
36260;BME280;22296;50.824;5.644;2023-07-29T00:26:30;99875.97;;;22.60;60.89
36260;BME280;22296;50.824;5.644;2023-07-29T00:28:58;99879.19;;;22.62;61.18
36260;BME280;22296;50.824;5.644;2023-07-29T00:31:24;99885.59;;;22.59;60.90
36260;BME280;22296;50.824;5.644;2023-07-29T00:33:51;99896.06;;;22.62;60.81
36260;BME280;22296;50.824;5.644;2023-07-29T00:36:19;99898.47;;;22.60;61.16
36260;BME280;22296;50.824;5.644;2023-07-29T00:38:47;99893.63;;;22.57;60.95
36260;BME280;22296;50.824;5.644;2023-07-29T00:41:15;99884.00;;;22.58;61.16
36260;BME280;22296;50.824;5.644;2023-07-29T00:43:42;99888.00;;;22.57;61.09
36260;BME280;22296;50.824;5.644;2023-07-29T00:46:10;99881.59;;;22.56;61.36
36260;BME280;22296;50.824;5.644;2023-07-29T00:48:39;99888.81;;;22.57;61.50
36260;BME280;22296;50.824;5.644;2023-07-29T00:51:06;99894.44;;;22.57;61.38
36260;BME280;22296;50.824;5.644;2023-07-29T00:53:33;99884.00;;;22.58;61.80
36260;BME280;22296;50.824;5.644;2023-07-29T00:56:00;99882.41;;;22.57;61.72
36260;BME280;22296;50.824;5.644;2023-07-29T00:58:27;99875.97;;;22.56;61.46
36260;BME280;22296;50.824;5.644;2023-07-29T01:00:54;99872.78;;;22.58;61.30
36260;BME280;22296;50.824;5.644;2023-07-29T01:03:22;99864.72;;;22.56;61.45
36260;BME280;22296;50.824;5.644;2023-07-29T01:08:35;99873.56;;;22.55;61.86
36260;BME280;22296;50.824;5.644;2023-07-29T01:11:17;99875.16;;;22.56;61.62
36260;BME280;22296;50.824;5.644;2023-07-29T01:13:54;99873.97;;;22.57;61.53
36260;BME280;22296;50.824;5.644;2023-07-29T01:16:42;99863.91;;;22.56;61.63
36260;BME280;22296;50.824;5.644;2023-07-29T01:22:26;99877.59;;;22.57;61.30
36260;BME280;22296;50.824;5.644;2023-07-29T01:24:54;99874.38;;;22.59;61.07
36260;BME280;22296;50.824;5.644;2023-07-29T01:27:20;99873.59;;;22.58;60.94
36260;BME280;22296;50.824;5.644;2023-07-29T01:29:49;99877.97;;;22.56;60.86
36260;BME280;22296;50.824;5.644;2023-07-29T01:35:00;99876.78;;;22.57;61.33
36260;BME280;22296;50.824;5.644;2023-07-29T01:37:32;99858.28;;;22.56;61.24
36260;BME280;22296;50.824;5.644;2023-07-29T01:40:01;99871.16;;;22.57;61.30
36260;BME280;22296;50.824;5.644;2023-07-29T01:42:29;99868.34;;;22.57;60.90
36260;BME280;22296;50.824;5.644;2023-07-29T01:44:57;99861.09;;;22.56;61.24
36260;BME280;22296;50.824;5.644;2023-07-29T01:47:24;99866.31;;;22.54;61.26
36260;BME280;22296;50.824;5.644;2023-07-29T01:49:54;99867.13;;;22.54;61.29
36260;BME280;22296;50.824;5.644;2023-07-29T01:52:20;99867.94;;;22.55;61.89
36260;BME280;22296;50.824;5.644;2023-07-29T01:54:47;99874.38;;;22.55;61.90
36260;BME280;22296;50.824;5.644;2023-07-29T01:57:14;99875.16;;;22.56;61.63
36260;BME280;22296;50.824;5.644;2023-07-29T01:59:41;99880.78;;;22.56;61.60
36260;BME280;22296;50.824;5.644;2023-07-29T02:02:08;99877.97;;;22.56;61.37
36260;BME280;22296;50.824;5.644;2023-07-29T02:04:35;99869.94;;;22.54;61.65
36260;BME280;22296;50.824;5.644;2023-07-29T02:07:02;99875.56;;;22.54;61.65
36260;BME280;22296;50.824;5.644;2023-07-29T02:09:28;99879.19;;;22.55;61.86
36260;BME280;22296;50.824;5.644;2023-07-29T02:11:57;99870.31;;;22.53;61.67
36260;BME280;22296;50.824;5.644;2023-07-29T02:14:24;99870.31;;;22.53;61.64
36260;BME280;22296;50.824;5.644;2023-07-29T02:16:51;99866.31;;;22.54;61.47
36260;BME280;22296;50.824;5.644;2023-07-29T02:19:18;99858.31;;;22.52;61.70
36260;BME280;22296;50.824;5.644;2023-07-29T02:21:45;99860.31;;;22.52;62.09
36260;BME280;22296;50.824;5.644;2023-07-29T02:24:12;99855.88;;;22.51;61.80
36260;BME280;22296;50.824;5.644;2023-07-29T02:26:39;99855.06;;;22.50;61.87
36260;BME280;22296;50.824;5.644;2023-07-29T02:29:05;99847.44;;;22.51;62.04
36260;BME280;22296;50.824;5.644;2023-07-29T02:31:32;99872.72;;;22.51;62.08
36260;BME280;22296;50.824;5.644;2023-07-29T02:34:01;99869.53;;;22.52;61.92
36260;BME280;22296;50.824;5.644;2023-07-29T02:36:28;99871.13;;;22.50;61.48
36260;BME280;22296;50.824;5.644;2023-07-29T02:38:54;99875.16;;;22.52;61.23
36260;BME280;22296;50.824;5.644;2023-07-29T02:41:21;99868.72;;;22.52;61.30
36260;BME280;22296;50.824;5.644;2023-07-29T02:43:49;99855.88;;;22.51;61.17
36260;BME280;22296;50.824;5.644;2023-07-29T02:46:17;99863.13;;;22.52;61.17
36260;BME280;22296;50.824;5.644;2023-07-29T02:48:44;99853.47;;;22.49;61.40
36260;BME280;22296;50.824;5.644;2023-07-29T02:51:11;99851.03;;;22.48;61.67
36260;BME280;22296;50.824;5.644;2023-07-29T02:53:38;99853.44;;;22.46;61.92
36260;BME280;22296;50.824;5.644;2023-07-29T02:56:05;99860.69;;;22.47;61.73
36260;BME280;22296;50.824;5.644;2023-07-29T02:58:32;99867.09;;;22.47;61.41
36260;BME280;22296;50.824;5.644;2023-07-29T03:01:04;99866.31;;;22.47;61.50
36260;BME280;22296;50.824;5.644;2023-07-29T03:03:32;99875.13;;;22.49;61.37
36260;BME280;22296;50.824;5.644;2023-07-29T03:06:04;99869.53;;;22.49;61.02
36260;BME280;22296;50.824;5.644;2023-07-29T03:08:32;99868.69;;;22.45;61.03
36260;BME280;22296;50.824;5.644;2023-07-29T03:11:06;99870.31;;;22.46;61.04
36260;BME280;22296;50.824;5.644;2023-07-29T03:13:34;99859.84;;;22.43;61.19
36260;BME280;22296;50.824;5.644;2023-07-29T03:18:36;99859.06;;;22.46;60.97
36260;BME280;22296;50.824;5.644;2023-07-29T03:21:04;99875.94;;;22.46;61.15
36260;BME280;22296;50.824;5.644;2023-07-29T03:23:32;99875.94;;;22.46;61.15
36260;BME280;22296;50.824;5.644;2023-07-29T03:26:00;99870.31;;;22.46;60.73
36260;BME280;22296;50.824;5.644;2023-07-29T03:28:29;99872.72;;;22.44;60.94
36260;BME280;22296;50.824;5.644;2023-07-29T03:30:56;99875.53;;;22.44;60.86
36260;BME280;22296;50.824;5.644;2023-07-29T03:33:24;99868.69;;;22.45;60.89
36260;BME280;22296;50.824;5.644;2023-07-29T03:35:52;99872.72;;;22.44;60.77
36260;BME280;22296;50.824;5.644;2023-07-29T03:38:19;99876.72;;;22.43;60.91
36260;BME280;22296;50.824;5.644;2023-07-29T03:40:46;99873.50;;;22.41;60.66
36260;BME280;22296;50.824;5.644;2023-07-29T03:43:13;99880.72;;;22.42;60.49
36260;BME280;22296;50.824;5.644;2023-07-29T03:45:40;99877.50;;;22.40;60.68
36260;BME280;22296;50.824;5.644;2023-07-29T03:48:07;99882.31;;;22.39;60.61
36260;BME280;22296;50.824;5.644;2023-07-29T03:50:35;99880.72;;;22.38;60.70
36260;BME280;22296;50.824;5.644;2023-07-29T03:53:03;99869.47;;;22.38;60.85
36260;BME280;22296;50.824;5.644;2023-07-29T03:55:31;99872.28;;;22.38;60.60
36260;BME280;22296;50.824;5.644;2023-07-29T03:57:58;99874.28;;;22.38;60.64
36260;BME280;22296;50.824;5.644;2023-07-29T04:00:27;99857.44;;;22.38;60.50
36260;BME280;22296;50.824;5.644;2023-07-29T04:02:54;99863.06;;;22.38;60.53
36260;BME280;22296;50.824;5.644;2023-07-29T04:05:21;99850.19;;;22.37;60.58
36260;BME280;22296;50.824;5.644;2023-07-29T04:07:48;99846.16;;;22.34;60.56
36260;BME280;22296;50.824;5.644;2023-07-29T04:10:15;99850.56;;;22.32;60.38
36260;BME280;22296;50.824;5.644;2023-07-29T04:12:43;99854.19;;;22.36;60.32
36260;BME280;22296;50.824;5.644;2023-07-29T04:15:10;99846.97;;;22.35;60.27
36260;BME280;22296;50.824;5.644;2023-07-29T04:17:36;99846.97;;;22.31;60.37
36260;BME280;22296;50.824;5.644;2023-07-29T04:20:04;99857.38;;;22.31;60.26
36260;BME280;22296;50.824;5.644;2023-07-29T04:22:33;99852.16;;;22.33;60.51
36260;BME280;22296;50.824;5.644;2023-07-29T04:25:00;99860.59;;;22.33;60.10
36260;BME280;22296;50.824;5.644;2023-07-29T04:27:27;99864.63;;;22.32;60.14
36260;BME280;22296;50.824;5.644;2023-07-29T04:29:53;99863.81;;;22.31;60.52
36260;BME280;22296;50.824;5.644;2023-07-29T04:32:20;99875.84;;;22.32;60.06
36260;BME280;22296;50.824;5.644;2023-07-29T04:34:48;99883.88;;;22.30;60.06
36260;BME280;22296;50.824;5.644;2023-07-29T04:37:14;99864.22;;;22.30;60.06
36260;BME280;22296;50.824;5.644;2023-07-29T04:39:41;99876.66;;;22.32;60.28
36260;BME280;22296;50.824;5.644;2023-07-29T04:42:08;99881.06;;;22.30;60.22
36260;BME280;22296;50.824;5.644;2023-07-29T04:44:35;99878.25;;;22.30;60.20
36260;BME280;22296;50.824;5.644;2023-07-29T04:47:02;99897.50;;;22.28;60.38
36260;BME280;22296;50.824;5.644;2023-07-29T04:49:28;99897.50;;;22.28;60.13
36260;BME280;22296;50.824;5.644;2023-07-29T04:51:55;99902.72;;;22.26;60.27
36260;BME280;22296;50.824;5.644;2023-07-29T04:54:22;99901.50;;;22.27;60.34
36260;BME280;22296;50.824;5.644;2023-07-29T04:56:49;99903.88;;;22.25;60.55
36260;BME280;22296;50.824;5.644;2023-07-29T04:59:16;99911.94;;;22.26;60.20
36260;BME280;22296;50.824;5.644;2023-07-29T05:01:43;99903.50;;;22.23;60.49
36260;BME280;22296;50.824;5.644;2023-07-29T05:04:10;99909.09;;;22.23;60.59
36260;BME280;22296;50.824;5.644;2023-07-29T05:06:37;99911.91;;;22.23;60.62
36260;BME280;22296;50.824;5.644;2023-07-29T05:09:18;99917.53;;;22.23;60.59
36260;BME280;22296;50.824;5.644;2023-07-29T05:11:47;99918.31;;;22.20;60.75
36260;BME280;22296;50.824;5.644;2023-07-29T05:14:16;99927.16;;;22.22;60.37
36260;BME280;22296;50.824;5.644;2023-07-29T05:16:44;99929.56;;;22.23;60.62
36260;BME280;22296;50.824;5.644;2023-07-29T05:19:11;99936.00;;;22.24;60.37
36260;BME280;22296;50.824;5.644;2023-07-29T05:21:39;99927.16;;;22.22;60.49
36260;BME280;22296;50.824;5.644;2023-07-29T05:24:06;99929.56;;;22.23;60.37
36260;BME280;22296;50.824;5.644;2023-07-29T05:26:33;99937.19;;;22.23;60.54
36260;BME280;22296;50.824;5.644;2023-07-29T05:29:01;99939.59;;;22.21;60.41
36260;BME280;22296;50.824;5.644;2023-07-29T05:31:28;99938.38;;;22.22;60.77
36260;BME280;22296;50.824;5.644;2023-07-29T05:33:55;99940.41;;;22.21;60.39
36260;BME280;22296;50.824;5.644;2023-07-29T05:36:22;99935.16;;;22.20;60.71
36260;BME280;22296;50.824;5.644;2023-07-29T05:38:49;99937.59;;;22.21;60.23
36260;BME280;22296;50.824;5.644;2023-07-29T05:41:16;99934.34;;;22.19;60.49
36260;BME280;22296;50.824;5.644;2023-07-29T05:43:43;99941.97;;;22.19;60.66
36260;BME280;22296;50.824;5.644;2023-07-29T05:46:10;99940.78;;;22.20;60.53
36260;BME280;22296;50.824;5.644;2023-07-29T05:48:37;99950.41;;;22.19;60.50
36260;BME280;22296;50.824;5.644;2023-07-29T05:51:03;99953.63;;;22.21;60.67
36260;BME280;22296;50.824;5.644;2023-07-29T05:53:32;99943.59;;;22.20;60.48
36260;BME280;22296;50.824;5.644;2023-07-29T05:55:59;99946.00;;;22.18;60.74
36260;BME280;22296;50.824;5.644;2023-07-29T05:58:26;99948.81;;;22.18;60.74
36260;BME280;22296;50.824;5.644;2023-07-29T06:00:53;99944.78;;;22.19;60.68
36260;BME280;22296;50.824;5.644;2023-07-29T06:03:20;99950.41;;;22.19;60.56
36260;BME280;22296;50.824;5.644;2023-07-29T06:05:49;99952.94;;;22.38;60.44
36260;BME280;22296;50.824;5.644;2023-07-29T06:08:20;99951.78;;;22.46;60.22
36260;BME280;22296;50.824;5.644;2023-07-29T06:10:47;99951.44;;;22.54;59.75
36260;BME280;22296;50.824;5.644;2023-07-29T06:13:14;99943.44;;;22.60;60.26
36260;BME280;22296;50.824;5.644;2023-07-29T06:15:40;99930.25;;;22.64;59.87
36260;BME280;22296;50.824;5.644;2023-07-29T06:18:07;99928.66;;;22.70;59.63
36260;BME280;22296;50.824;5.644;2023-07-29T06:20:34;99932.28;;;22.74;59.39
36260;BME280;22296;50.824;5.644;2023-07-29T06:23:01;99931.53;;;22.84;59.02
36260;BME280;22296;50.824;5.644;2023-07-29T06:25:28;99945.19;;;22.86;59.45
36260;BME280;22296;50.824;5.644;2023-07-29T06:27:55;99949.19;;;22.85;59.44
36260;BME280;22296;50.824;5.644;2023-07-29T06:30:22;99960.06;;;22.86;59.28
36260;BME280;22296;50.824;5.644;2023-07-29T06:32:48;99960.47;;;22.88;59.17
36260;BME280;22296;50.824;5.644;2023-07-29T06:35:15;99958.06;;;22.90;59.19
36260;BME280;22296;50.824;5.644;2023-07-29T06:37:42;99953.25;;;22.94;59.28
36260;BME280;22296;50.824;5.644;2023-07-29T06:40:09;99956.47;;;22.96;58.97
36260;BME280;22296;50.824;5.644;2023-07-29T06:42:36;99962.94;;;23.00;58.93
36260;BME280;22296;50.824;5.644;2023-07-29T06:45:05;99962.94;;;23.04;58.96
36260;BME280;22296;50.824;5.644;2023-07-29T06:47:32;99962.13;;;23.03;58.98
36260;BME280;22296;50.824;5.644;2023-07-29T06:49:58;99958.91;;;23.05;58.84
36260;BME280;22296;50.824;5.644;2023-07-29T06:52:25;99950.91;;;23.07;59.01
36260;BME280;22296;50.824;5.644;2023-07-29T06:54:52;99948.88;;;23.07;59.00
36260;BME280;22296;50.824;5.644;2023-07-29T06:57:19;99951.72;;;23.11;58.92
36260;BME280;22296;50.824;5.644;2023-07-29T06:59:46;99948.50;;;23.09;58.96
36260;BME280;22296;50.824;5.644;2023-07-29T07:02:13;99953.31;;;23.01;58.83
36260;BME280;22296;50.824;5.644;2023-07-29T07:04:39;99962.09;;;22.96;58.81
36260;BME280;22296;50.824;5.644;2023-07-29T07:07:06;99958.88;;;22.94;58.94
36260;BME280;22296;50.824;5.644;2023-07-29T07:09:33;99958.06;;;22.94;58.77
36260;BME280;22296;50.824;5.644;2023-07-29T07:11:59;99962.09;;;22.93;59.00
36260;BME280;22296;50.824;5.644;2023-07-29T07:14:26;99961.31;;;22.92;58.71
36260;BME280;22296;50.824;5.644;2023-07-29T07:16:53;99957.28;;;22.90;58.74
36260;BME280;22296;50.824;5.644;2023-07-29T07:19:20;99967.72;;;22.89;59.03
36260;BME280;22296;50.824;5.644;2023-07-29T07:21:46;99958.47;;;22.89;59.06
36260;BME280;22296;50.824;5.644;2023-07-29T07:24:13;99953.25;;;22.87;58.78
36260;BME280;22296;50.824;5.644;2023-07-29T07:26:40;99962.06;;;22.86;58.99
36260;BME280;22296;50.824;5.644;2023-07-29T07:29:07;99962.47;;;22.84;58.84
36260;BME280;22296;50.824;5.644;2023-07-29T07:31:34;99965.28;;;22.84;59.10
36260;BME280;22296;50.824;5.644;2023-07-29T07:34:01;99963.66;;;22.83;58.78
36260;BME280;22296;50.824;5.644;2023-07-29T07:36:29;99974.09;;;22.83;58.84
36260;BME280;22296;50.824;5.644;2023-07-29T07:38:56;99973.28;;;22.82;59.10
36260;BME280;22296;50.824;5.644;2023-07-29T07:41:23;99980.56;;;22.90;58.98
36260;BME280;22296;50.824;5.644;2023-07-29T07:43:50;99975.78;;;22.98;59.07
36260;BME280;22296;50.824;5.644;2023-07-29T07:46:17;99970.97;;;23.02;58.65
36260;BME280;22296;50.824;5.644;2023-07-29T07:48:44;99977.41;;;23.06;58.59
36260;BME280;22296;50.824;5.644;2023-07-29T07:51:11;99966.16;;;23.06;58.61
36260;BME280;22296;50.824;5.644;2023-07-29T07:53:38;99963.34;;;23.06;58.61
36260;BME280;22296;50.824;5.644;2023-07-29T07:56:06;99964.53;;;23.05;58.33
36260;BME280;22296;50.824;5.644;2023-07-29T07:58:34;99965.34;;;23.05;58.68
36260;BME280;22296;50.824;5.644;2023-07-29T08:01:04;99962.94;;;23.07;58.33
36260;BME280;22296;50.824;5.644;2023-07-29T08:03:31;99967.78;;;23.10;58.40
36260;BME280;22296;50.824;5.644;2023-07-29T08:05:58;99971.41;;;23.11;58.51
36260;BME280;22296;50.824;5.644;2023-07-29T08:08:26;99974.22;;;23.14;58.15
36260;BME280;22296;50.824;5.644;2023-07-29T08:10:54;99970.22;;;23.15;58.29
36260;BME280;22296;50.824;5.644;2023-07-29T08:13:21;99981.88;;;23.17;57.78
36260;BME280;22296;50.824;5.644;2023-07-29T08:15:49;99984.69;;;23.17;58.03
36260;BME280;22296;50.824;5.644;2023-07-29T08:18:17;99970.63;;;23.17;57.98
36260;BME280;22296;50.824;5.644;2023-07-29T08:20:58;99976.66;;;23.19;57.96
36260;BME280;22296;50.824;5.644;2023-07-29T08:23:25;99983.06;;;23.16;57.92
36260;BME280;22296;50.824;5.644;2023-07-29T08:25:58;99987.50;;;23.17;58.16
36260;BME280;22296;50.824;5.644;2023-07-29T08:28:37;99988.69;;;23.16;57.83
36260;BME280;22296;50.824;5.644;2023-07-29T08:31:05;99993.53;;;23.19;58.17
36260;BME280;22296;50.824;5.644;2023-07-29T08:33:32;99991.94;;;23.22;57.73
36260;BME280;22296;50.824;5.644;2023-07-29T08:36:00;99987.13;;;23.22;57.68
36260;BME280;22296;50.824;5.644;2023-07-29T08:38:27;99995.16;;;23.20;57.85
36260;BME280;22296;50.824;5.644;2023-07-29T08:41:16;99994.34;;;23.20;58.26
36260;BME280;22296;50.824;5.644;2023-07-29T08:43:52;99991.50;;;23.16;58.10
36260;BME280;22296;50.824;5.644;2023-07-29T08:46:23;100001.53;;;23.10;58.06
36260;BME280;22296;50.824;5.644;2023-07-29T08:48:50;100004.75;;;23.09;58.27
36260;BME280;22296;50.824;5.644;2023-07-29T08:51:18;99999.09;;;23.05;58.30
36260;BME280;22296;50.824;5.644;2023-07-29T08:53:46;99999.09;;;23.02;58.24
36260;BME280;22296;50.824;5.644;2023-07-29T08:56:13;99997.50;;;23.04;58.15
36260;BME280;22296;50.824;5.644;2023-07-29T08:58:41;99995.94;;;23.14;58.33
36260;BME280;22296;50.824;5.644;2023-07-29T09:01:08;99989.50;;;23.17;57.92
36260;BME280;22296;50.824;5.644;2023-07-29T09:03:36;99997.56;;;23.18;57.86
36260;BME280;22296;50.824;5.644;2023-07-29T09:06:03;99999.19;;;23.23;57.85
36260;BME280;22296;50.824;5.644;2023-07-29T09:08:30;99998.34;;;23.15;57.91
36260;BME280;22296;50.824;5.644;2023-07-29T09:10:57;99995.91;;;23.10;57.95
36260;BME280;22296;50.824;5.644;2023-07-29T09:13:24;99992.69;;;23.08;57.91
36260;BME280;22296;50.824;5.644;2023-07-29T09:15:55;99988.66;;;23.06;57.81
36260;BME280;22296;50.824;5.644;2023-07-29T09:18:26;99985.84;;;23.06;57.79
36260;BME280;22296;50.824;5.644;2023-07-29T09:20:53;99987.84;;;23.05;57.82
36260;BME280;22296;50.824;5.644;2023-07-29T09:23:20;99995.47;;;23.05;57.82
36260;BME280;22296;50.824;5.644;2023-07-29T09:25:47;99994.28;;;23.06;57.79
36260;BME280;22296;50.824;5.644;2023-07-29T09:28:15;99991.88;;;23.04;58.09
36260;BME280;22296;50.824;5.644;2023-07-29T09:30:45;99995.91;;;23.03;57.93
36260;BME280;22296;50.824;5.644;2023-07-29T09:33:13;99987.84;;;23.02;57.85
36260;BME280;22296;50.824;5.644;2023-07-29T09:35:39;99975.81;;;23.01;57.83
36260;BME280;22296;50.824;5.644;2023-07-29T09:38:07;99974.19;;;23.00;57.89
36260;BME280;22296;50.824;5.644;2023-07-29T09:40:39;99979.81;;;23.07;57.79
36260;BME280;22296;50.824;5.644;2023-07-29T09:43:07;99981.47;;;23.15;57.86
36260;BME280;22296;50.824;5.644;2023-07-29T09:45:35;99979.91;;;23.21;57.70
36260;BME280;22296;50.824;5.644;2023-07-29T09:48:04;99982.31;;;23.26;57.79
36260;BME280;22296;50.824;5.644;2023-07-29T09:50:36;99971.88;;;23.31;57.28
36260;BME280;22296;50.824;5.644;2023-07-29T09:53:03;99981.53;;;23.37;57.27
36260;BME280;22296;50.824;5.644;2023-07-29T09:55:32;99983.13;;;23.34;57.35
36260;BME280;22296;50.824;5.644;2023-07-29T09:58:01;99985.97;;;23.38;57.17
36260;BME280;22296;50.824;5.644;2023-07-29T10:00:30;99979.94;;;23.36;57.50
36260;BME280;22296;50.824;5.644;2023-07-29T10:02:58;99991.19;;;23.36;57.48
36260;BME280;22296;50.824;5.644;2023-07-29T10:05:27;99988.38;;;23.36;57.44
36260;BME280;22296;50.824;5.644;2023-07-29T10:07:54;99987.63;;;23.39;57.42
36260;BME280;22296;50.824;5.644;2023-07-29T10:10:22;99983.16;;;23.38;56.98
36260;BME280;22296;50.824;5.644;2023-07-29T10:12:50;99979.19;;;23.39;57.18
36260;BME280;22296;50.824;5.644;2023-07-29T10:15:17;99982.34;;;23.37;57.04
36260;BME280;22296;50.824;5.644;2023-07-29T10:17:45;99977.09;;;23.28;57.26
36260;BME280;22296;50.824;5.644;2023-07-29T10:20:16;99971.84;;;23.23;57.57
36260;BME280;22296;50.824;5.644;2023-07-29T10:22:46;99969.44;;;23.22;57.28
36260;BME280;22296;50.824;5.644;2023-07-29T10:25:17;99972.66;;;23.20;57.21
36260;BME280;22296;50.824;5.644;2023-07-29T10:28:07;99968.22;;;23.19;57.16
36260;BME280;22296;50.824;5.644;2023-07-29T10:30:34;99969.44;;;23.18;57.51
36260;BME280;22296;50.824;5.644;2023-07-29T10:33:02;99962.19;;;23.17;57.21
36260;BME280;22296;50.824;5.644;2023-07-29T10:35:30;99956.56;;;23.17;57.36
36260;BME280;22296;50.824;5.644;2023-07-29T10:37:59;99965.00;;;23.17;57.43
36260;BME280;22296;50.824;5.644;2023-07-29T10:40:26;99971.81;;;23.16;57.16
36260;BME280;22296;50.824;5.644;2023-07-29T10:43:09;99967.81;;;23.17;57.52
36260;BME280;22296;50.824;5.644;2023-07-29T10:45:40;99973.44;;;23.17;57.33
36260;BME280;22296;50.824;5.644;2023-07-29T10:48:11;99963.38;;;23.16;57.52
36260;BME280;22296;50.824;5.644;2023-07-29T10:50:39;99961.78;;;23.15;57.68
36260;BME280;22296;50.824;5.644;2023-07-29T10:53:05;99961.78;;;23.15;57.44
36260;BME280;22296;50.824;5.644;2023-07-29T10:55:34;99959.75;;;23.16;57.48
36260;BME280;22296;50.824;5.644;2023-07-29T11:00:32;99956.56;;;23.17;57.88
36260;BME280;22296;50.824;5.644;2023-07-29T11:03:01;99961.78;;;23.19;57.48
36260;BME280;22296;50.824;5.644;2023-07-29T11:05:58;99964.22;;;23.20;57.48
36260;BME280;22296;50.824;5.644;2023-07-29T11:08:31;99958.19;;;23.18;57.70
36260;BME280;22296;50.824;5.644;2023-07-29T11:11:08;99945.72;;;23.19;57.85
36260;BME280;22296;50.824;5.644;2023-07-29T11:13:38;99947.34;;;23.20;57.73
36260;BME280;22296;50.824;5.644;2023-07-29T11:16:06;99937.69;;;23.21;57.74
36260;BME280;22296;50.824;5.644;2023-07-29T11:18:36;99935.66;;;23.22;57.64
36260;BME280;22296;50.824;5.644;2023-07-29T11:21:03;99932.47;;;23.23;57.96
36260;BME280;22296;50.824;5.644;2023-07-29T11:23:34;99929.66;;;23.23;57.53
36260;BME280;22296;50.824;5.644;2023-07-29T11:26:02;99924.44;;;23.25;57.53
36260;BME280;22296;50.824;5.644;2023-07-29T11:28:29;99916.00;;;23.25;57.56
36260;BME280;22296;50.824;5.644;2023-07-29T11:30:57;99912.38;;;23.28;57.79
36260;BME280;22296;50.824;5.644;2023-07-29T11:33:25;99923.63;;;23.28;57.49
36260;BME280;22296;50.824;5.644;2023-07-29T11:35:55;99917.22;;;23.32;58.59
36260;BME280;22296;50.824;5.644;2023-07-29T11:38:22;99916.88;;;23.54;59.15
36260;BME280;22296;50.824;5.644;2023-07-29T11:41:00;99923.72;;;23.64;59.86
36260;BME280;22296;50.824;5.644;2023-07-29T11:43:29;99922.13;;;23.66;59.84
36260;BME280;22296;50.824;5.644;2023-07-29T11:45:56;99932.56;;;23.66;59.16
36260;BME280;22296;50.824;5.644;2023-07-29T11:48:35;99923.72;;;23.67;59.08
36260;BME280;22296;50.824;5.644;2023-07-29T11:51:02;99910.88;;;23.70;59.76
36260;BME280;22296;50.824;5.644;2023-07-29T11:53:30;99918.47;;;23.76;58.85
36260;BME280;22296;50.824;5.644;2023-07-29T11:55:58;99918.91;;;23.78;58.84
36260;BME280;22296;50.824;5.644;2023-07-29T11:58:25;99917.28;;;23.77;58.48
36260;BME280;22296;50.824;5.644;2023-07-29T12:00:52;99916.47;;;23.77;58.77
36260;BME280;22296;50.824;5.644;2023-07-29T12:03:19;99911.66;;;23.85;58.85
36260;BME280;22296;50.824;5.644;2023-07-29T12:05:48;99899.19;;;23.75;58.14
36260;BME280;22296;50.824;5.644;2023-07-29T12:08:15;99895.56;;;23.74;58.25
36260;BME280;22296;50.824;5.644;2023-07-29T12:10:43;99895.56;;;23.78;58.48
36260;BME280;22296;50.824;5.644;2023-07-29T12:13:10;99901.22;;;23.81;58.65
36260;BME280;22296;50.824;5.644;2023-07-29T12:15:38;99896.78;;;23.84;58.41
36260;BME280;22296;50.824;5.644;2023-07-29T12:18:06;99899.97;;;23.86;58.40
36260;BME280;22296;50.824;5.644;2023-07-29T12:20:33;99919.31;;;23.88;58.45
36260;BME280;22296;50.824;5.644;2023-07-29T12:23:00;99935.78;;;23.89;58.77
36260;BME280;22296;50.824;5.644;2023-07-29T12:25:32;99951.06;;;23.88;58.67
36260;BME280;22296;50.824;5.644;2023-07-29T12:28:05;99962.75;;;23.87;59.26
36260;BME280;22296;50.824;5.644;2023-07-29T12:30:33;99967.97;;;23.88;59.00
36260;BME280;22296;50.824;5.644;2023-07-29T12:33:00;99978.03;;;23.89;58.91
36260;BME280;22296;50.824;5.644;2023-07-29T12:35:35;99980.84;;;23.89;58.97
36260;BME280;22296;50.824;5.644;2023-07-29T12:38:01;99969.19;;;23.87;58.90
36260;BME280;22296;50.824;5.644;2023-07-29T12:40:28;99953.88;;;23.88;59.06
36260;BME280;22296;50.824;5.644;2023-07-29T12:42:55;99969.19;;;23.87;59.01
36260;BME280;22296;50.824;5.644;2023-07-29T12:45:23;99972.00;;;23.87;59.35
36260;BME280;22296;50.824;5.644;2023-07-29T12:47:53;99966.38;;;23.87;58.80
36260;BME280;22296;50.824;5.644;2023-07-29T12:50:19;99972.00;;;23.87;58.69
36260;BME280;22296;50.824;5.644;2023-07-29T12:52:47;99956.69;;;23.88;58.72
36260;BME280;22296;50.824;5.644;2023-07-29T12:55:14;99953.50;;;23.90;59.08
36260;BME280;22296;50.824;5.644;2023-07-29T12:57:42;99954.69;;;23.92;58.84
36260;BME280;22296;50.824;5.644;2023-07-29T13:00:10;99958.72;;;23.91;58.81
36260;BME280;22296;50.824;5.644;2023-07-29T13:02:37;99957.50;;;23.89;58.27
36260;BME280;22296;50.824;5.644;2023-07-29T13:05:05;99957.50;;;23.89;58.97
36260;BME280;22296;50.824;5.644;2023-07-29T13:07:32;99963.53;;;23.91;58.40
36260;BME280;22296;50.824;5.644;2023-07-29T13:10:00;99974.03;;;23.90;58.30
36260;BME280;22296;50.824;5.644;2023-07-29T13:12:27;99962.75;;;23.90;58.27
36260;BME280;22296;50.824;5.644;2023-07-29T13:14:54;99958.31;;;23.89;58.77
36260;BME280;22296;50.824;5.644;2023-07-29T13:17:21;99920.50;;;23.83;58.82
36260;BME280;22296;50.824;5.644;2023-07-29T13:19:49;99921.31;;;23.73;59.43